Fort Thomas, Arizona
Current Conditions -  °F | °C
As of 10:51 AM on Saturday 25 Oct 2014 (Local Time) from KSAD Reporting Station
Clear Clear  
Wind Chill: 77°   Ceiling: Unl
Heat Index: 78°   Visibility: 10mi
Dew Point: 44°   Wind: 5mph
Humidity: 31%   Direction: NA
Pressure: 30.18"   Gusts: NA
Location:  33.04°N, 109.96°W
Report Text: KSAD 251751Z AUTO VRB04KT 10SM CLR 25/07 A3018 RMK AO2 SLP181 T02500067 10256 20117 58001
Loading
Personal Weather Stations






























Interactive Weather Map
Tropical Storm Tracking
New forecast layout! Learn more

10-Day Weather Forecast

Advertisements
Track Severe Weather on mobile